Time;durP1;ratioP1;P1;durP2;ratioP2;P2;SDS_P1;SDS_P2;PMS_P1;PMS_P2;Temp;Humidity;BMP_temperature;BMP_pressure;BME280_temperature;BME280_humidity;BME280_pressure;Samples;Min_cycle;Max_cycle;Signal;HPM_P1;HPM_P2
2022/08/07 00:00:18;;;;;;;1.97;1.87;;;;;;;15.52;50.33;102447.84;4960259;28;97382;-49
2022/08/07 00:02:44;;;;;;;2.50;2.30;;;;;;;15.51;50.27;102442.75;4963366;28;97145;-47
2022/08/07 00:05:09;;;;;;;2.73;2.53;;;;;;;15.49;50.34;102442.47;4958461;28;97610;-47
2022/08/07 00:07:34;;;;;;;3.07;2.70;;;;;;;15.45;50.29;102436.38;4960148;28;97784;-47
2022/08/07 00:09:59;;;;;;;2.60;2.40;;;;;;;15.42;50.46;102443.63;4954392;28;96979;-48
2022/08/07 00:12:25;;;;;;;2.23;2.13;;;;;;;15.35;50.50;102440.50;4960489;28;97226;-47
2022/08/07 00:14:50;;;;;;;3.30;2.30;;;;;;;15.29;50.50;102443.19;4956539;28;97349;-47
2022/08/07 00:17:15;;;;;;;2.23;2.13;;;;;;;15.26;50.53;102437.84;4953738;28;97115;-47
2022/08/07 00:19:41;;;;;;;2.60;2.40;;;;;;;15.24;50.51;102443.09;4956439;28;96912;-48
2022/08/07 00:22:06;;;;;;;2.87;2.67;;;;;;;15.21;50.60;102432.97;4961390;28;97696;-47
2022/08/07 00:24:32;;;;;;;2.47;2.30;;;;;;;15.16;50.71;102431.63;4961874;28;97293;-47
2022/08/07 00:26:57;;;;;;;3.00;2.70;;;;;;;15.13;50.58;102434.63;4961016;28;97552;-47
2022/08/07 00:29:25;;;;;;;3.07;2.87;;;;;;;15.12;50.59;102424.75;4959734;28;98046;-48
2022/08/07 00:31:53;;;;;;;3.73;3.03;;;;;;;15.05;50.65;102419.63;4959221;28;96772;-47
2022/08/07 00:34:18;;;;;;;3.13;2.83;;;;;;;14.96;50.80;102424.03;4957596;28;97749;-53
2022/08/07 00:36:43;;;;;;;3.03;2.73;;;;;;;14.92;50.88;102423.44;4958002;28;97122;-48
2022/08/07 00:39:11;;;;;;;2.50;2.30;;;;;;;14.88;51.03;102417.34;4960950;28;97127;-48
2022/08/07 00:41:38;;;;;;;3.90;2.87;;;;;;;14.86;51.29;102421.84;4955045;28;96963;-48
2022/08/07 00:44:04;;;;;;;3.30;2.80;;;;;;;14.85;51.22;102425.88;4963475;28;98476;-48
2022/08/07 00:46:30;;;;;;;3.90;2.57;;;;;;;14.83;51.16;102425.59;4963732;28;97175;-50
2022/08/07 00:49:00;;;;;;;2.93;2.73;;;;;;;14.81;51.09;102416.97;4962123;28;97217;-48
2022/08/07 00:51:26;;;;;;;3.33;3.03;;;;;;;14.79;51.08;102422.22;4959431;28;97699;-48
2022/08/07 00:53:52;;;;;;;3.40;3.10;;;;;;;14.78;51.24;102423.47;4958845;28;97226;-47
2022/08/07 00:56:17;;;;;;;3.07;2.73;;;;;;;14.74;51.16;102417.38;4960596;28;96710;-48
2022/08/07 00:58:44;;;;;;;2.80;2.60;;;;;;;14.70;51.13;102428.63;4957904;28;97148;-48
2022/08/07 01:01:09;;;;;;;3.47;2.90;;;;;;;14.68;51.19;102422.78;4959259;28;97603;-47
2022/08/07 01:03:35;;;;;;;2.63;2.53;;;;;;;14.65;51.16;102420.22;4959180;28;97207;-47
2022/08/07 01:06:01;;;;;;;3.27;2.43;;;;;;;14.59;51.23;102422.88;4960417;28;97688;-48
2022/08/07 01:08:27;;;;;;;4.17;3.20;;;;;;;14.55;51.29;102424.31;4961616;28;96812;-48
2022/08/07 01:10:53;;;;;;;3.47;3.17;;;;;;;14.53;51.40;102427.56;4960533;28;97118;-48
2022/08/07 01:13:19;;;;;;;3.10;2.90;;;;;;;14.52;51.50;102419.75;4960328;28;96909;-47
2022/08/07 01:15:45;;;;;;;3.30;3.00;;;;;;;14.45;51.54;102425.66;4959783;28;98287;-48
2022/08/07 01:18:12;;;;;;;3.10;2.80;;;;;;;14.44;51.64;102413.06;4960872;28;97014;-48
2022/08/07 01:20:45;;;;;;;2.40;2.20;;;;;;;14.44;51.99;102419.34;4960526;28;97121;-48
2022/08/07 01:23:12;;;;;;;3.20;2.97;;;;;;;14.39;51.45;102414.47;4960308;28;97355;-48
2022/08/07 01:25:39;;;;;;;2.50;2.40;;;;;;;14.35;51.40;102422.19;4956814;28;100582;-48
2022/08/07 01:28:04;;;;;;;1.90;1.80;;;;;;;14.26;51.52;102419.50;4963743;28;96838;-47
2022/08/07 01:30:31;;;;;;;3.37;3.17;;;;;;;14.18;51.59;102421.09;4964847;28;96928;-48
2022/08/07 01:32:56;;;;;;;2.40;2.23;;;;;;;14.15;51.82;102410.97;4960521;28;97100;-47
2022/08/07 01:35:22;;;;;;;3.60;3.30;;;;;;;14.09;51.82;102415.63;4961927;28;97153;-48
2022/08/07 01:37:48;;;;;;;3.63;2.97;;;;;;;14.07;51.91;102413.34;4959294;28;96750;-47
2022/08/07 01:40:15;;;;;;;2.70;2.50;;;;;;;14.07;51.86;102413.34;4960554;28;96836;-48
2022/08/07 01:42:40;;;;;;;2.93;2.73;;;;;;;14.06;51.96;102416.59;4957932;28;97190;-47
2022/08/07 01:45:06;;;;;;;3.87;3.03;;;;;;;14.02;51.92;102418.78;4961132;28;98376;-48
2022/08/07 01:47:32;;;;;;;2.60;2.40;;;;;;;13.99;52.01;102411.41;4960436;28;96762;-47
2022/08/07 01:49:57;;;;;;;3.53;2.67;;;;;;;13.98;51.88;102412.63;4958313;28;97319;-48
2022/08/07 01:52:26;;;;;;;2.50;2.30;;;;;;;13.94;51.99;102410.06;4963490;28;97496;-48
2022/08/07 01:54:55;;;;;;;2.83;2.63;;;;;;;13.92;52.02;102417.28;4958627;28;101428;-47
2022/08/07 01:57:24;;;;;;;3.17;2.87;;;;;;;13.87;52.36;102402.09;4952376;28;96699;-47
2022/08/07 01:59:59;;;;;;;2.93;2.73;;;;;;;13.87;52.55;102404.88;4957853;28;96925;-47
2022/08/07 02:02:30;;;;;;;3.23;2.90;;;;;;;13.86;52.36;102402.59;4958471;28;96886;-48
2022/08/07 02:05:01;;;;;;;3.90;3.33;;;;;;;13.85;52.08;102401.03;4956664;28;97193;-48
2022/08/07 02:07:32;;;;;;;3.40;3.00;;;;;;;13.80;52.20;102394.19;4956993;28;96959;-47
2022/08/07 02:09:59;;;;;;;3.37;3.07;;;;;;;13.77;52.17;102391.59;4959870;28;97148;-48
2022/08/07 02:12:27;;;;;;;3.20;2.90;;;;;;;13.73;52.20;102393.78;4957167;28;97523;-48
2022/08/07 02:14:55;;;;;;;3.20;3.00;;;;;;;13.69;52.41;102393.97;4958291;28;96918;-48
2022/08/07 02:17:22;;;;;;;3.20;2.90;;;;;;;13.65;52.32;102393.34;4955739;28;96951;-48
2022/08/07 02:19:48;;;;;;;3.40;3.10;;;;;;;13.63;52.14;102392.31;4952913;28;97494;-47
2022/08/07 02:22:18;;;;;;;2.70;2.57;;;;;;;13.59;52.37;102388.94;4953062;28;98459;-47
2022/08/07 02:24:46;;;;;;;3.00;2.80;;;;;;;13.54;52.27;102393.88;4959378;28;97728;-48
2022/08/07 02:27:15;;;;;;;3.07;2.50;;;;;;;13.51;52.24;102389.31;4957784;28;102825;-48
2022/08/07 02:29:41;;;;;;;4.73;3.03;;;;;;;13.47;52.39;102390.72;4956032;28;97113;-48
2022/08/07 02:32:09;;;;;;;2.77;2.57;;;;;;;13.45;52.66;102390.44;4959446;28;97365;-48
2022/08/07 02:34:36;;;;;;;3.00;2.80;;;;;;;13.42;52.58;102389.34;4957538;28;97359;-48
2022/08/07 02:37:04;;;;;;;3.27;2.80;;;;;;;13.40;52.64;102389.06;4957501;28;96991;-48
2022/08/07 02:39:33;;;;;;;2.90;2.70;;;;;;;13.39;52.66;102390.28;4954649;28;97435;-48
2022/08/07 02:42:00;;;;;;;2.80;2.63;;;;;;;13.41;52.68;102385.06;4951885;28;97526;-48
2022/08/07 02:44:28;;;;;;;3.03;2.83;;;;;;;13.40;52.42;102389.06;4955472;28;97661;-48
2022/08/07 02:46:55;;;;;;;3.27;2.97;;;;;;;13.36;52.51;102390.47;4953871;28;97190;-47
2022/08/07 02:49:21;;;;;;;3.90;3.60;;;;;;;13.32;52.67;102393.38;4955089;28;96831;-48
2022/08/07 02:51:47;;;;;;;3.23;2.93;;;;;;;13.31;52.70;102385.56;4956582;28;97267;-47
2022/08/07 02:54:15;;;;;;;3.40;3.10;;;;;;;13.30;52.78;102386.81;4958665;28;101673;-47
2022/08/07 02:56:42;;;;;;;3.63;3.33;;;;;;;13.29;52.82;102394.34;4959064;28;96809;-48
2022/08/07 02:59:10;;;;;;;3.80;3.50;;;;;;;13.27;52.76;102388.53;4953918;28;97035;-47
2022/08/07 03:01:40;;;;;;;3.40;3.10;;;;;;;13.29;53.12;102397.09;4955402;28;97413;-48
2022/08/07 03:04:09;;;;;;;3.90;3.60;;;;;;;13.23;52.85;102385.16;4949933;28;98403;-48
2022/08/07 03:06:36;;;;;;;3.33;3.03;;;;;;;13.20;52.85;102383.31;4955961;28;96732;-48
2022/08/07 03:09:03;;;;;;;3.30;3.00;;;;;;;13.17;52.89;102389.78;4953683;28;97035;-47
2022/08/07 03:11:30;;;;;;;3.03;2.83;;;;;;;13.17;52.86;102381.50;4952911;28;100940;-48
2022/08/07 03:13:56;;;;;;;3.33;3.03;;;;;;;13.14;52.75;102387.19;4958880;28;97217;-48
2022/08/07 03:16:23;;;;;;;4.27;3.43;;;;;;;13.10;52.98;102384.63;4954787;28;97508;-48
2022/08/07 03:18:48;;;;;;;4.47;2.97;;;;;;;13.08;52.82;102384.31;4957606;28;96694;-48
2022/08/07 03:21:15;;;;;;;3.27;3.07;;;;;;;13.05;52.73;102379.72;4957994;28;97574;-48
2022/08/07 03:23:42;;;;;;;3.33;3.10;;;;;;;12.99;52.67;102378.81;4956404;28;97280;-47
2022/08/07 03:26:09;;;;;;;3.83;3.47;;;;;;;12.95;53.00;102378.22;4951163;28;97359;-48
2022/08/07 03:28:35;;;;;;;3.63;3.37;;;;;;;12.93;52.99;102383.41;4955419;28;97363;-48
2022/08/07 03:31:18;;;;;;;3.17;2.97;;;;;;;12.92;52.88;102381.91;4955017;28;97422;-47
2022/08/07 03:33:47;;;;;;;3.20;3.00;;;;;;;12.87;53.07;102374.22;4952667;28;97149;-49
2022/08/07 03:36:13;;;;;;;3.40;3.10;;;;;;;12.85;52.92;102375.94;4957469;28;97024;-48
2022/08/07 03:38:40;;;;;;;4.20;3.30;;;;;;;12.82;53.03;102372.88;4958283;28;97021;-46
2022/08/07 03:41:06;;;;;;;2.93;2.73;;;;;;;12.79;53.07;102382.09;4958613;28;97082;-46
2022/08/07 03:43:33;;;;;;;4.53;2.80;;;;;;;12.76;53.25;102383.03;4958865;28;98387;-47
2022/08/07 03:46:00;;;;;;;3.03;2.83;;;;;;;12.75;53.20;102380.72;4956287;28;96848;-48
2022/08/07 03:48:27;;;;;;;2.67;2.50;;;;;;;12.75;53.36;102391.78;4954191;28;97267;-48
2022/08/07 03:50:55;;;;;;;3.57;3.20;;;;;;;12.75;53.47;102394.53;4960198;28;97254;-48
2022/08/07 03:53:20;;;;;;;3.63;3.33;;;;;;;12.73;53.25;102403.28;4958492;28;97157;-47
2022/08/07 03:55:48;;;;;;;3.10;2.90;;;;;;;12.74;53.24;102401.28;4956789;28;97165;-47
2022/08/07 03:58:13;;;;;;;3.30;2.80;;;;;;;12.73;53.31;102391.47;4955158;28;96900;-47
2022/08/07 04:00:41;;;;;;;3.40;3.10;;;;;;;12.75;53.00;102400.06;4960512;28;97494;-46
2022/08/07 04:03:06;;;;;;;2.67;2.47;;;;;;;12.69;53.15;102391.63;4963476;28;97893;-48
2022/08/07 04:05:34;;;;;;;3.17;2.90;;;;;;;12.68;53.24;102390.09;4961253;28;97213;-48
2022/08/07 04:08:00;;;;;;;2.97;2.77;;;;;;;12.67;53.14;102393.31;4960132;28;97571;-48
2022/08/07 04:10:25;;;;;;;3.17;2.87;;;;;;;12.62;53.25;102396.72;4960832;28;97185;-47
2022/08/07 04:12:51;;;;;;;3.67;3.20;;;;;;;12.61;53.24;102403.47;4960908;28;97368;-48
2022/08/07 04:15:17;;;;;;;2.80;2.60;;;;;;;12.56;53.18;102399.31;4956370;28;99408;-48
2022/08/07 04:17:43;;;;;;;3.07;2.77;;;;;;;12.46;53.32;102403.34;4961321;28;96909;-48
2022/08/07 04:20:11;;;;;;;3.40;3.10;;;;;;;12.39;53.42;102400.13;4956519;28;98127;-48
2022/08/07 04:22:39;;;;;;;3.00;2.70;;;;;;;12.35;53.65;102405.81;4959757;28;98548;-48
2022/08/07 04:25:05;;;;;;;4.40;2.73;;;;;;;12.36;53.71;102407.31;4962495;28;97230;-46
2022/08/07 04:27:31;;;;;;;3.90;2.70;;;;;;;12.39;53.64;102392.63;4964800;28;97014;-47
2022/08/07 04:29:56;;;;;;;2.57;2.43;;;;;;;12.38;53.52;102398.59;4959621;28;97555;-47
2022/08/07 04:32:23;;;;;;;2.93;2.73;;;;;;;12.34;53.47;102398.00;4962657;28;96860;-46
2022/08/07 04:34:49;;;;;;;3.37;2.83;;;;;;;12.29;53.53;102398.59;4961697;28;96739;-47
2022/08/07 04:37:15;;;;;;;3.40;3.10;;;;;;;12.22;53.53;102402.44;4960907;28;96902;-48
2022/08/07 04:39:41;;;;;;;3.23;2.70;;;;;;;12.15;53.66;102401.97;4962193;28;97530;-48
2022/08/07 04:42:06;;;;;;;3.10;2.90;;;;;;;12.11;53.79;102398.63;4957854;28;97817;-49
2022/08/07 04:44:33;;;;;;;2.93;2.63;;;;;;;12.14;53.79;102406.75;4961800;28;96923;-48
2022/08/07 04:47:08;;;;;;;4.20;2.80;;;;;;;12.17;54.25;102402.28;4961434;28;96946;-47
2022/08/07 04:50:01;;;;;;;2.80;2.40;;;;;;;12.21;54.37;102408.44;4960137;28;97416;-47
2022/08/07 04:52:38;;;;;;;2.47;2.30;;;;;;;12.23;53.91;102406.72;4955123;28;100230;-47
2022/08/07 04:55:29;;;;;;;2.80;2.60;;;;;;;12.27;54.26;102410.13;4960797;28;97194;-46
2022/08/07 04:58:09;;;;;;;2.90;2.60;;;;;;;12.30;54.32;102413.94;4961308;28;97407;-47
2022/08/07 05:00:38;;;;;;;2.37;2.27;;;;;;;12.32;53.84;102414.25;4961294;28;101494;-47
2022/08/07 05:03:22;;;;;;;2.53;2.40;;;;;;;12.36;54.23;102412.09;4961830;28;97316;-47
2022/08/07 05:05:58;;;;;;;2.60;2.40;;;;;;;12.39;54.09;102417.47;4957564;28;96750;-48
2022/08/07 05:08:31;;;;;;;2.10;2.00;;;;;;;12.41;53.96;102416.97;4961941;28;96872;-47
2022/08/07 05:11:04;;;;;;;2.67;2.47;;;;;;;12.44;53.85;102413.31;4958648;28;97053;-47
2022/08/07 05:13:38;;;;;;;2.57;2.40;;;;;;;12.46;54.23;102411.63;4957246;28;97370;-47
2022/08/07 05:16:07;;;;;;;2.80;2.60;;;;;;;12.49;53.84;102421.72;4957155;28;96841;-48
2022/08/07 05:18:43;;;;;;;2.87;2.63;;;;;;;12.52;53.97;102417.28;4956231;28;98207;-46
2022/08/07 05:21:12;;;;;;;2.10;2.00;;;;;;;12.56;53.78;102423.41;4961127;28;97511;-47
2022/08/07 05:23:40;;;;;;;2.63;2.00;;;;;;;12.59;53.84;102414.22;4958735;28;97098;-46
2022/08/07 05:26:11;;;;;;;3.50;2.40;;;;;;;12.63;53.78;102420.31;4955831;28;97345;-47
2022/08/07 05:28:38;;;;;;;2.40;2.20;;;;;;;12.66;53.92;102414.66;4960200;28;96797;-47
2022/08/07 05:31:06;;;;;;;2.67;2.47;;;;;;;12.71;53.83;102421.56;4963262;28;97786;-46
2022/08/07 05:33:33;;;;;;;2.10;2.00;;;;;;;12.75;53.84;102419.41;4957121;28;100227;-47
2022/08/07 05:36:00;;;;;;;2.00;1.90;;;;;;;12.79;54.16;102425.53;4957323;28;96857;-48
2022/08/07 05:38:27;;;;;;;2.30;2.10;;;;;;;12.85;53.92;102423.66;4957018;28;96977;-47
2022/08/07 05:40:53;;;;;;;2.27;2.13;;;;;;;12.90;54.17;102423.03;4957128;28;97428;-47
2022/08/07 05:43:18;;;;;;;3.33;3.03;;;;;;;12.96;54.13;102426.69;4956767;28;98595;-48
2022/08/07 05:45:46;;;;;;;2.40;2.27;;;;;;;13.00;54.14;102416.25;4956678;28;97272;-47
2022/08/07 05:48:12;;;;;;;2.20;2.10;;;;;;;13.03;54.04;102420.84;4963306;28;96929;-46
2022/08/07 05:50:38;;;;;;;5.60;3.00;;;;;;;13.07;54.12;102421.47;4962215;28;97359;-47
2022/08/07 05:53:03;;;;;;;2.73;2.53;;;;;;;13.11;54.21;102427.59;4961767;28;97158;-47
2022/08/07 05:55:31;;;;;;;2.63;2.43;;;;;;;13.19;54.34;102434.31;4957490;28;97203;-47
2022/08/07 05:57:59;;;;;;;2.33;2.23;;;;;;;13.25;54.35;102423.38;4959663;28;96970;-47
2022/08/07 06:00:25;;;;;;;2.87;2.23;;;;;;;13.32;54.42;102423.81;4954081;28;97458;-47
2022/08/07 06:02:52;;;;;;;2.40;2.20;;;;;;;13.38;54.26;102424.72;4955175;28;97231;-47
2022/08/07 06:05:20;;;;;;;2.30;2.20;;;;;;;13.45;54.28;102418.06;4954629;28;96857;-48
2022/08/07 06:07:46;;;;;;;2.60;2.40;;;;;;;13.53;54.33;102420.03;4958011;28;96979;-48
2022/08/07 06:10:12;;;;;;;2.37;2.17;;;;;;;13.59;54.51;102420.13;4957570;28;97414;-48
2022/08/07 06:12:38;;;;;;;2.30;2.20;;;;;;;13.65;54.50;102423.03;4957508;28;97493;-48
2022/08/07 06:15:03;;;;;;;2.80;2.60;;;;;;;13.74;54.52;102428.50;4957102;28;96767;-47
2022/08/07 06:17:30;;;;;;;2.10;2.00;;;;;;;13.82;54.54;102427.69;4952681;28;97129;-47
2022/08/07 06:19:57;;;;;;;2.20;2.00;;;;;;;13.93;54.68;102436.22;4955278;28;97087;-47
2022/08/07 06:22:23;;;;;;;2.33;2.13;;;;;;;14.03;54.58;102434.13;4956519;28;97331;-48
2022/08/07 06:24:49;;;;;;;2.90;2.70;;;;;;;14.13;54.73;102438.38;4954547;28;96759;-47
2022/08/07 06:27:24;;;;;;;2.57;2.47;;;;;;;14.24;55.53;102436.56;4954705;28;97194;-47
2022/08/07 06:29:50;;;;;;;5.03;2.77;;;;;;;14.33;54.78;102440.53;4954215;28;97194;-47
2022/08/07 06:32:16;;;;;;;2.27;2.17;;;;;;;14.42;54.75;102441.22;4957779;28;97854;-48
2022/08/07 06:34:41;;;;;;;2.67;2.47;;;;;;;14.53;54.77;102446.19;4958456;28;97823;-48
2022/08/07 06:37:07;;;;;;;2.70;2.50;;;;;;;14.62;54.90;102444.09;4957292;28;96960;-48
2022/08/07 06:39:32;;;;;;;2.73;2.57;;;;;;;14.73;54.87;102441.53;4957765;28;97014;-47
2022/08/07 06:42:09;;;;;;;3.07;2.87;;;;;;;14.87;55.57;102443.53;4956130;28;97083;-47
2022/08/07 06:44:36;;;;;;;2.50;2.30;;;;;;;14.95;54.94;102441.91;4953473;28;97784;-47
2022/08/07 06:47:02;;;;;;;3.10;2.90;;;;;;;15.08;54.96;102440.81;4955175;28;97818;-48
2022/08/07 06:49:27;;;;;;;3.30;3.00;;;;;;;15.20;55.11;102439.78;4950990;28;97174;-47
2022/08/07 06:51:55;;;;;;;3.50;3.00;;;;;;;15.34;55.16;102436.19;4958051;28;97438;-50
2022/08/07 06:54:24;;;;;;;2.83;2.63;;;;;;;15.46;55.25;102440.69;4957395;28;97203;-48
2022/08/07 06:56:50;;;;;;;3.77;3.40;;;;;;;15.59;55.27;102439.13;4956781;28;97280;-48
2022/08/07 06:59:25;;;;;;;5.10;2.97;;;;;;;15.72;55.97;102436.78;4955041;28;97731;-48
2022/08/07 07:01:53;;;;;;;6.80;4.20;;;;;;;15.88;55.38;102434.69;4955083;28;101721;-47
2022/08/07 07:04:19;;;;;;;7.57;4.30;;;;;;;16.04;55.26;102432.13;4959867;28;96818;-47
2022/08/07 07:06:44;;;;;;;4.40;4.00;;;;;;;16.19;55.10;102424.47;4959141;28;96870;-47
2022/08/07 07:09:19;;;;;;;5.83;4.47;;;;;;;16.38;55.81;102425.66;4960478;28;98922;-47
2022/08/07 07:12:05;;;;;;;3.83;3.53;;;;;;;16.54;55.56;102426.34;4955644;28;97125;-48
2022/08/07 07:14:40;;;;;;;3.53;3.30;;;;;;;16.70;55.22;102429.31;4959098;28;97232;-46
2022/08/07 07:17:13;;;;;;;4.53;3.50;;;;;;;16.86;55.00;102425.16;4959639;28;97227;-47
2022/08/07 07:19:45;;;;;;;4.03;3.30;;;;;;;17.00;54.86;102425.00;4958654;28;102010;-46
2022/08/07 07:22:11;;;;;;;4.47;4.07;;;;;;;17.15;54.80;102431.19;4955782;28;102318;-46
2022/08/07 07:24:38;;;;;;;3.80;3.50;;;;;;;17.27;54.69;102426.47;4957986;28;98156;-48
2022/08/07 07:27:06;;;;;;;5.43;3.50;;;;;;;17.40;54.64;102434.38;4956493;28;96784;-48
2022/08/07 07:29:35;;;;;;;3.67;3.37;;;;;;;17.55;54.68;102432.97;4958835;28;97602;-48
2022/08/07 07:32:04;;;;;;;3.80;3.50;;;;;;;17.70;54.33;102419.63;4962911;28;96833;-48
2022/08/07 07:34:32;;;;;;;4.03;3.70;;;;;;;17.86;54.15;102421.75;4962491;28;96739;-49
2022/08/07 07:37:02;;;;;;;4.00;3.70;;;;;;;18.03;54.06;102424.59;4961886;28;96764;-48
2022/08/07 07:39:28;;;;;;;3.40;3.07;;;;;;;18.18;54.08;102424.38;4964779;28;97612;-47
2022/08/07 07:41:55;;;;;;;3.77;3.47;;;;;;;18.32;53.83;102412.25;4958964;28;103141;-47
2022/08/07 07:44:23;;;;;;;4.30;3.93;;;;;;;18.49;53.69;102413.06;4964091;28;99394;-48
2022/08/07 07:46:50;;;;;;;2.97;2.77;;;;;;;18.65;53.26;102415.84;4953099;28;97387;-48
2022/08/07 07:49:18;;;;;;;2.93;2.73;;;;;;;18.84;53.09;102407.75;4963646;28;98686;-48
2022/08/07 07:51:45;;;;;;;3.60;3.40;;;;;;;18.99;52.77;102404.69;4960421;28;98237;-48
2022/08/07 07:54:13;;;;;;;3.40;3.10;;;;;;;19.12;52.61;102402.91;4960399;28;97187;-48
2022/08/07 07:56:40;;;;;;;3.80;3.50;;;;;;;19.28;52.48;102406.94;4964958;28;97224;-48
2022/08/07 07:59:06;;;;;;;3.47;3.17;;;;;;;19.42;52.43;102395.50;4962998;28;98621;-48
2022/08/07 08:01:33;;;;;;;5.07;3.57;;;;;;;19.53;52.23;102399.56;4960992;28;97296;-48
2022/08/07 08:04:02;;;;;;;2.63;2.43;;;;;;;19.66;52.22;102402.56;4961180;28;97143;-48
2022/08/07 08:06:30;;;;;;;3.33;3.13;;;;;;;19.78;52.15;102390.06;4959638;28;96801;-48
2022/08/07 08:08:57;;;;;;;3.10;2.90;;;;;;;19.90;51.82;102397.84;4961314;28;97458;-48
2022/08/07 08:11:22;;;;;;;3.23;3.03;;;;;;;20.04;51.28;102382.81;4960743;28;98325;-48
2022/08/07 08:13:48;;;;;;;3.13;2.93;;;;;;;20.18;50.69;102380.97;4962668;28;96655;-48
2022/08/07 08:16:17;;;;;;;4.30;3.20;;;;;;;20.30;50.40;102381.66;4960007;28;97312;-48
2022/08/07 08:18:44;;;;;;;3.63;3.43;;;;;;;20.44;50.35;102389.69;4959957;28;98075;-48
2022/08/07 08:27:03;;;;;;;3.30;2.97;;;;;;;20.59;49.84;102384.50;4950283;28;97831;-48
2022/08/07 08:29:38;;;;;;;2.87;2.67;;;;;;;21.03;49.00;102374.97;4954912;28;97702;-48
2022/08/07 08:32:04;;;;;;;4.30;3.27;;;;;;;21.18;48.67;102374.56;4957452;28;97305;-47
2022/08/07 08:34:32;;;;;;;3.67;2.93;;;;;;;21.31;48.48;102385.88;4956888;28;97780;-48
2022/08/07 08:37:01;;;;;;;4.40;3.30;;;;;;;21.43;48.06;102364.84;4957089;28;97243;-48
2022/08/07 08:39:27;;;;;;;3.20;3.00;;;;;;;21.53;47.93;102369.56;4956602;28;97494;-48
2022/08/07 08:42:02;;;;;;;4.67;2.40;;;;;;;21.68;47.52;102366.31;4957078;28;97243;-49
2022/08/07 08:44:41;;;;;;;3.00;2.80;;;;;;;21.81;46.03;102362.84;4957838;28;97059;-48
2022/08/07 08:47:25;;;;;;;4.10;2.70;;;;;;;21.92;45.75;102363.50;4957522;28;97039;-48
2022/08/07 08:50:23;;;;;;;3.00;2.80;;;;;;;22.08;45.38;102358.94;4955626;28;97466;-48
2022/08/07 08:53:19;;;;;;;2.70;2.50;;;;;;;22.21;45.20;102356.94;4956628;28;100465;-48
2022/08/07 08:56:00;;;;;;;2.37;2.27;;;;;;;22.38;45.30;102351.84;4951083;28;97425;-48
2022/08/07 08:58:35;;;;;;;2.60;2.50;;;;;;;22.58;45.26;102355.34;4955866;28;96955;-47
2022/08/07 09:01:21;;;;;;;2.80;2.60;;;;;;;22.71;44.44;102356.16;4949899;28;99824;-48
2022/08/07 09:03:55;;;;;;;2.70;2.50;;;;;;;22.92;45.41;102371.09;4955811;28;102128;-48
2022/08/07 09:06:28;;;;;;;2.50;2.23;;;;;;;23.10;44.45;102361.06;4957053;28;97183;-48
2022/08/07 09:08:59;;;;;;;3.20;2.60;;;;;;;23.24;44.63;102359.75;4957245;28;97520;-48
2022/08/07 09:12:03;;;;;;;2.23;1.90;;;;;;;23.31;42.58;102359.09;4956579;28;97482;-48
2022/08/07 09:14:43;;;;;;;1.90;1.80;;;;;;;23.45;43.10;102352.22;4955231;28;101653;-48
2022/08/07 09:17:27;;;;;;;2.10;2.00;;;;;;;23.57;43.01;102359.09;4956707;28;97395;-48
2022/08/07 09:20:04;;;;;;;2.10;2.00;;;;;;;23.74;42.95;102359.50;4956056;28;97236;-47
2022/08/07 09:22:52;;;;;;;2.00;1.90;;;;;;;23.87;41.77;102361.53;4955127;28;100672;-49
2022/08/07 09:25:25;;;;;;;1.97;1.87;;;;;;;23.94;42.10;102351.69;4955912;28;97373;-48
2022/08/07 09:28:05;;;;;;;1.90;1.70;;;;;;;23.99;41.08;102359.97;4956531;28;97239;-47
2022/08/07 09:30:43;;;;;;;2.50;2.10;;;;;;;24.06;41.28;102355.75;4953294;28;96881;-48
2022/08/07 09:33:34;;;;;;;1.67;1.57;;;;;;;24.17;40.94;102353.47;4956337;28;101957;-49
2022/08/07 09:36:13;;;;;;;1.60;1.50;;;;;;;24.30;40.84;102355.44;4957541;28;97454;-47
2022/08/07 09:38:48;;;;;;;2.27;1.97;;;;;;;24.37;40.70;102344.28;4955542;28;97381;-48
2022/08/07 09:41:29;;;;;;;1.73;1.63;;;;;;;24.52;41.11;102344.41;4957423;28;97605;-48
2022/08/07 09:44:02;;;;;;;4.03;1.93;;;;;;;24.69;41.42;102337.59;4955159;28;100515;-48
2022/08/07 09:46:43;;;;;;;1.90;1.80;;;;;;;24.83;40.10;102342.63;4955063;28;99487;-48
2022/08/07 09:49:21;;;;;;;1.67;1.57;;;;;;;24.93;40.50;102340.03;4953977;28;97005;-48
2022/08/07 09:51:59;;;;;;;1.87;1.77;;;;;;;24.99;39.74;102335.75;4956311;28;97230;-48
2022/08/07 09:54:45;;;;;;;1.67;1.57;;;;;;;25.14;39.31;102327.41;4954620;28;100701;-48
2022/08/07 09:57:51;;;;;;;2.17;1.50;;;;;;;25.33;39.04;102329.97;4954359;28;100461;-47
2022/08/07 10:00:25;;;;;;;1.93;1.77;;;;;;;25.52;39.86;102324.81;4954643;28;97054;-48
2022/08/07 10:03:09;;;;;;;2.17;1.97;;;;;;;25.61;40.04;102317.88;4955639;28;97387;-48
2022/08/07 10:05:43;;;;;;;1.90;1.80;;;;;;;25.69;39.57;102315.81;4955904;28;100639;-48
2022/08/07 10:08:36;;;;;;;1.90;1.80;;;;;;;25.76;38.62;102315.88;4954892;28;100201;-49
2022/08/07 10:11:20;;;;;;;1.80;1.70;;;;;;;25.86;38.26;102313.28;4953284;28;97732;-48
2022/08/07 10:13:55;;;;;;;1.93;1.57;;;;;;;25.90;38.95;102316.47;4955275;28;96942;-49
2022/08/07 10:16:40;;;;;;;1.70;1.60;;;;;;;25.91;37.76;102306.69;4953588;28;98912;-49
2022/08/07 10:19:08;;;;;;;1.63;1.53;;;;;;;25.96;39.11;102300.13;4956316;28;97883;-48
2022/08/07 10:21:47;;;;;;;2.20;2.03;;;;;;;26.08;37.43;102301.25;4956692;28;97205;-48
2022/08/07 10:24:31;;;;;;;1.80;1.70;;;;;;;26.17;38.62;102300.72;4955890;28;97488;-48
2022/08/07 10:27:16;;;;;;;1.73;1.63;;;;;;;26.20;37.48;102304.50;4953649;28;101949;-48
2022/08/07 10:30:19;;;;;;;1.80;1.60;;;;;;;26.26;36.75;102293.75;4955752;28;97582;-49
2022/08/07 10:33:03;;;;;;;1.93;1.40;;;;;;;26.33;36.54;102293.03;4955286;28;97504;-48
2022/08/07 10:35:45;;;;;;;1.50;1.40;;;;;;;26.34;37.10;102286.81;4955195;28;97243;-48
2022/08/07 10:38:35;;;;;;;1.23;1.23;;;;;;;26.35;36.23;102279.84;4954261;28;102948;-49
2022/08/07 10:41:01;;;;;;;1.60;1.50;;;;;;;26.34;37.81;102281.16;4953330;28;100209;-48
2022/08/07 10:43:31;;;;;;;2.10;1.67;;;;;;;26.43;37.15;102283.41;4954897;28;97487;-48
2022/08/07 10:46:00;;;;;;;1.50;1.40;;;;;;;26.53;36.98;102275.13;4956369;28;97384;-48
2022/08/07 10:48:30;;;;;;;1.13;1.00;;;;;;;26.60;36.50;102277.94;4956047;28;97985;-47
2022/08/07 10:51:02;;;;;;;1.40;1.30;;;;;;;26.68;37.06;102273.06;4956127;28;98830;-47
2022/08/07 10:53:54;;;;;;;1.60;1.50;;;;;;;26.83;35.92;102271.53;4958187;28;96773;-48
2022/08/07 10:56:35;;;;;;;1.73;1.23;;;;;;;26.90;35.76;102276.41;4958236;28;96739;-49
2022/08/07 10:59:34;;;;;;;1.23;1.13;;;;;;;26.83;35.56;102274.34;4946244;28;101887;-48
2022/08/07 11:02:15;;;;;;;1.37;1.10;;;;;;;26.92;35.37;102266.06;4954709;28;101627;-49
2022/08/07 11:05:05;;;;;;;1.00;0.97;;;;;;;27.02;34.44;102260.56;4956225;28;99069;-47
2022/08/07 11:08:23;;;;;;;1.60;1.40;;;;;;;27.08;34.83;102252.63;4957082;28;96948;-49
2022/08/07 11:10:58;;;;;;;1.50;1.20;;;;;;;27.15;35.29;102249.75;4917291;28;101899;-48
2022/08/07 11:13:37;;;;;;;1.83;1.37;;;;;;;27.16;34.76;102247.69;4957291;28;98028;-48
2022/08/07 11:16:10;;;;;;;1.93;1.23;;;;;;;27.22;35.25;102248.22;4946762;28;97233;-48
2022/08/07 11:18:45;;;;;;;1.60;1.50;;;;;;;27.31;35.63;102242.72;4958254;28;97409;-48
2022/08/07 11:21:24;;;;;;;1.60;1.50;;;;;;;27.40;35.23;102244.22;4958058;28;100529;-48
2022/08/07 11:24:07;;;;;;;1.40;1.30;;;;;;;27.51;34.51;102237.38;4944387;28;100895;-48
2022/08/07 11:26:44;;;;;;;1.63;1.40;;;;;;;27.60;33.96;102231.09;4958483;28;98140;-48
2022/08/07 11:29:15;;;;;;;1.53;1.40;;;;;;;27.56;34.45;102231.50;4953574;28;96989;-48
2022/08/07 11:31:50;;;;;;;1.50;1.40;;;;;;;27.56;33.96;102228.69;4949227;28;96910;-48
2022/08/07 11:34:28;;;;;;;1.93;1.43;;;;;;;27.51;33.83;102223.97;4951916;28;101506;-48
2022/08/07 11:37:21;;;;;;;1.67;1.57;;;;;;;27.39;33.61;102225.75;4960723;28;97902;-47
2022/08/07 11:40:03;;;;;;;1.30;1.20;;;;;;;27.37;33.84;102217.84;4963383;28;96979;-48
2022/08/07 11:42:53;;;;;;;1.47;1.37;;;;;;;27.36;33.75;102227.66;4963974;28;101644;-49
2022/08/07 11:45:41;;;;;;;1.43;1.27;;;;;;;27.48;32.31;102221.56;4953444;28;103065;-49
2022/08/07 11:48:34;;;;;;;1.40;1.30;;;;;;;27.45;33.23;102212.91;4955709;28;97816;-50